sensor_id;sensor_type;location;lat;lon;timestamp;temperature;humidity
3268;DHT22;1646;52.450;13.326;2022-12-05T00:04:52;5.00;99.90
3268;DHT22;1646;52.450;13.326;2022-12-05T00:09:51;5.00;99.90
3268;DHT22;1646;52.450;13.326;2022-12-05T00:14:50;5.00;99.90
3268;DHT22;1646;52.450;13.326;2022-12-05T00:19:48;5.00;99.90
3268;DHT22;1646;52.450;13.326;2022-12-05T00:24:54;5.00;99.90
3268;DHT22;1646;52.450;13.326;2022-12-05T00:29:52;5.00;99.90
3268;DHT22;1646;52.450;13.326;2022-12-05T00:34:50;5.00;99.90
3268;DHT22;1646;52.450;13.326;2022-12-05T00:39:48;5.00;99.90
3268;DHT22;1646;52.450;13.326;2022-12-05T00:44:49;5.00;99.90
3268;DHT22;1646;52.450;13.326;2022-12-05T00:49:47;5.00;99.90
3268;DHT22;1646;52.450;13.326;2022-12-05T00:54:45;5.00;99.90
3268;DHT22;1646;52.450;13.326;2022-12-05T00:59:44;5.10;99.90
3268;DHT22;1646;52.450;13.326;2022-12-05T01:04:43;5.20;99.90
3268;DHT22;1646;52.450;13.326;2022-12-05T01:09:41;5.20;99.90
3268;DHT22;1646;52.450;13.326;2022-12-05T01:14:39;5.10;99.90
3268;DHT22;1646;52.450;13.326;2022-12-05T01:19:37;5.20;99.90
3268;DHT22;1646;52.450;13.326;2022-12-05T01:24:37;5.10;99.90
3268;DHT22;1646;52.450;13.326;2022-12-05T01:29:35;5.10;99.90
3268;DHT22;1646;52.450;13.326;2022-12-05T01:34:33;5.10;99.90
3268;DHT22;1646;52.450;13.326;2022-12-05T01:39:31;5.00;99.90
3268;DHT22;1646;52.450;13.326;2022-12-05T01:45:00;4.90;99.90
3268;DHT22;1646;52.450;13.326;2022-12-05T01:49:58;4.90;99.90
3268;DHT22;1646;52.450;13.326;2022-12-05T01:55:00;4.90;99.90
3268;DHT22;1646;52.450;13.326;2022-12-05T02:00:05;4.90;99.90
3268;DHT22;1646;52.450;13.326;2022-12-05T02:05:12;4.90;99.90
3268;DHT22;1646;52.450;13.326;2022-12-05T02:10:12;4.90;99.90
3268;DHT22;1646;52.450;13.326;2022-12-05T02:15:29;4.90;99.90
3268;DHT22;1646;52.450;13.326;2022-12-05T02:20:38;4.90;99.90
3268;DHT22;1646;52.450;13.326;2022-12-05T02:25:50;5.00;99.90
3268;DHT22;1646;52.450;13.326;2022-12-05T02:30:56;4.90;99.90
3268;DHT22;1646;52.450;13.326;2022-12-05T02:36:01;4.90;99.90
3268;DHT22;1646;52.450;13.326;2022-12-05T02:41:08;4.80;99.90
3268;DHT22;1646;52.450;13.326;2022-12-05T02:46:12;4.80;99.90
3268;DHT22;1646;52.450;13.326;2022-12-05T02:51:13;4.80;99.90
3268;DHT22;1646;52.450;13.326;2022-12-05T02:56:13;4.90;99.90
3268;DHT22;1646;52.450;13.326;2022-12-05T03:01:13;4.90;99.90
3268;DHT22;1646;52.450;13.326;2022-12-05T03:06:14;4.90;99.90
3268;DHT22;1646;52.450;13.326;2022-12-05T03:11:14;5.00;99.90
3268;DHT22;1646;52.450;13.326;2022-12-05T03:16:19;5.00;99.90
3268;DHT22;1646;52.450;13.326;2022-12-05T03:21:24;5.00;99.90
3268;DHT22;1646;52.450;13.326;2022-12-05T03:26:35;5.00;99.90
3268;DHT22;1646;52.450;13.326;2022-12-05T03:31:39;5.00;99.90
3268;DHT22;1646;52.450;13.326;2022-12-05T03:36:41;5.00;99.90
3268;DHT22;1646;52.450;13.326;2022-12-05T03:41:47;5.00;99.90
3268;DHT22;1646;52.450;13.326;2022-12-05T03:46:54;5.10;99.90
3268;DHT22;1646;52.450;13.326;2022-12-05T03:51:57;5.10;99.90
3268;DHT22;1646;52.450;13.326;2022-12-05T03:57:00;5.10;99.90
3268;DHT22;1646;52.450;13.326;2022-12-05T04:02:05;5.10;99.90
3268;DHT22;1646;52.450;13.326;2022-12-05T04:07:06;5.10;99.90
3268;DHT22;1646;52.450;13.326;2022-12-05T04:12:12;5.10;99.90
3268;DHT22;1646;52.450;13.326;2022-12-05T04:17:17;5.00;99.90
3268;DHT22;1646;52.450;13.326;2022-12-05T04:22:17;5.00;99.90
3268;DHT22;1646;52.450;13.326;2022-12-05T04:27:21;5.10;99.90
3268;DHT22;1646;52.450;13.326;2022-12-05T04:32:25;5.10;99.90
3268;DHT22;1646;52.450;13.326;2022-12-05T04:37:25;5.00;99.90
3268;DHT22;1646;52.450;13.326;2022-12-05T04:42:27;5.10;99.90
3268;DHT22;1646;52.450;13.326;2022-12-05T04:47:30;5.10;99.90
3268;DHT22;1646;52.450;13.326;2022-12-05T04:52:30;5.10;99.90
3268;DHT22;1646;52.450;13.326;2022-12-05T04:57:31;5.10;99.90
3268;DHT22;1646;52.450;13.326;2022-12-05T05:02:33;5.10;99.90
3268;DHT22;1646;52.450;13.326;2022-12-05T05:07:42;5.10;99.90
3268;DHT22;1646;52.450;13.326;2022-12-05T05:12:41;5.10;99.90
3268;DHT22;1646;52.450;13.326;2022-12-05T05:17:40;5.20;99.90
3268;DHT22;1646;52.450;13.326;2022-12-05T05:22:38;5.10;99.90
3268;DHT22;1646;52.450;13.326;2022-12-05T05:27:36;5.10;99.90
3268;DHT22;1646;52.450;13.326;2022-12-05T05:32:34;5.30;99.90
3268;DHT22;1646;52.450;13.326;2022-12-05T05:37:34;5.20;99.90
3268;DHT22;1646;52.450;13.326;2022-12-05T05:42:32;5.20;99.90
3268;DHT22;1646;52.450;13.326;2022-12-05T05:47:30;5.20;99.90
3268;DHT22;1646;52.450;13.326;2022-12-05T05:52:28;5.20;99.90
3268;DHT22;1646;52.450;13.326;2022-12-05T05:57:27;5.20;99.90
3268;DHT22;1646;52.450;13.326;2022-12-05T06:02:30;5.20;99.90
3268;DHT22;1646;52.450;13.326;2022-12-05T06:07:29;5.20;99.90
3268;DHT22;1646;52.450;13.326;2022-12-05T06:12:28;5.30;99.90
3268;DHT22;1646;52.450;13.326;2022-12-05T06:17:26;5.20;99.90
3268;DHT22;1646;52.450;13.326;2022-12-05T06:22:24;5.20;99.90
3268;DHT22;1646;52.450;13.326;2022-12-05T06:27:23;5.30;99.90
3268;DHT22;1646;52.450;13.326;2022-12-05T06:32:22;5.30;99.90
3268;DHT22;1646;52.450;13.326;2022-12-05T06:37:20;5.30;99.90
3268;DHT22;1646;52.450;13.326;2022-12-05T06:42:18;5.30;99.90
3268;DHT22;1646;52.450;13.326;2022-12-05T06:47:17;5.30;99.90
3268;DHT22;1646;52.450;13.326;2022-12-05T06:52:17;5.40;99.90
3268;DHT22;1646;52.450;13.326;2022-12-05T06:57:15;5.40;99.90
3268;DHT22;1646;52.450;13.326;2022-12-05T07:02:13;5.40;99.90
3268;DHT22;1646;52.450;13.326;2022-12-05T07:07:11;5.40;99.90
3268;DHT22;1646;52.450;13.326;2022-12-05T07:12:11;5.40;99.90
3268;DHT22;1646;52.450;13.326;2022-12-05T07:17:10;5.40;99.90
3268;DHT22;1646;52.450;13.326;2022-12-05T07:22:08;5.30;99.90
3268;DHT22;1646;52.450;13.326;2022-12-05T07:27:13;5.30;99.90
3268;DHT22;1646;52.450;13.326;2022-12-05T07:32:16;5.40;99.90
3268;DHT22;1646;52.450;13.326;2022-12-05T07:37:14;5.50;99.90
3268;DHT22;1646;52.450;13.326;2022-12-05T07:42:14;5.50;99.90
3268;DHT22;1646;52.450;13.326;2022-12-05T07:47:12;5.50;99.90
3268;DHT22;1646;52.450;13.326;2022-12-05T07:52:10;5.50;99.90
3268;DHT22;1646;52.450;13.326;2022-12-05T07:57:08;5.50;99.90
3268;DHT22;1646;52.450;13.326;2022-12-05T08:02:08;5.50;99.90
3268;DHT22;1646;52.450;13.326;2022-12-05T08:07:09;5.50;99.90
3268;DHT22;1646;52.450;13.326;2022-12-05T08:12:07;5.50;99.90
3268;DHT22;1646;52.450;13.326;2022-12-05T08:17:05;5.60;99.90
3268;DHT22;1646;52.450;13.326;2022-12-05T08:22:05;5.60;99.90
3268;DHT22;1646;52.450;13.326;2022-12-05T08:27:03;5.60;99.90
3268;DHT22;1646;52.450;13.326;2022-12-05T08:32:01;5.50;99.90
3268;DHT22;1646;52.450;13.326;2022-12-05T08:36:59;5.50;99.90
3268;DHT22;1646;52.450;13.326;2022-12-05T08:41:59;5.60;99.90
3268;DHT22;1646;52.450;13.326;2022-12-05T08:46:57;5.50;99.90
3268;DHT22;1646;52.450;13.326;2022-12-05T08:51:55;5.50;99.90
3268;DHT22;1646;52.450;13.326;2022-12-05T08:56:53;5.50;99.90
3268;DHT22;1646;52.450;13.326;2022-12-05T09:01:52;5.60;99.90
3268;DHT22;1646;52.450;13.326;2022-12-05T09:06:50;5.60;99.90
3268;DHT22;1646;52.450;13.326;2022-12-05T09:11:49;5.70;99.90
3268;DHT22;1646;52.450;13.326;2022-12-05T09:16:47;5.70;99.90
3268;DHT22;1646;52.450;13.326;2022-12-05T09:21:47;5.70;99.90
3268;DHT22;1646;52.450;13.326;2022-12-05T09:26:45;5.60;99.90
3268;DHT22;1646;52.450;13.326;2022-12-05T09:31:44;5.60;99.90
3268;DHT22;1646;52.450;13.326;2022-12-05T09:36:43;5.60;99.90
3268;DHT22;1646;52.450;13.326;2022-12-05T09:41:59;5.60;99.90
3268;DHT22;1646;52.450;13.326;2022-12-05T09:47:13;5.60;99.90
3268;DHT22;1646;52.450;13.326;2022-12-05T09:52:21;5.70;99.90
3268;DHT22;1646;52.450;13.326;2022-12-05T09:57:28;5.60;99.90
3268;DHT22;1646;52.450;13.326;2022-12-05T10:02:38;5.50;99.90
3268;DHT22;1646;52.450;13.326;2022-12-05T10:07:45;5.50;99.90
3268;DHT22;1646;52.450;13.326;2022-12-05T10:13:04;5.60;99.90
3268;DHT22;1646;52.450;13.326;2022-12-05T10:18:13;5.50;99.90
3268;DHT22;1646;52.450;13.326;2022-12-05T10:23:17;5.40;99.90
3268;DHT22;1646;52.450;13.326;2022-12-05T10:28:44;5.30;99.90
3268;DHT22;1646;52.450;13.326;2022-12-05T10:33:47;5.40;99.90
3268;DHT22;1646;52.450;13.326;2022-12-05T10:38:46;5.40;99.90
3268;DHT22;1646;52.450;13.326;2022-12-05T10:43:47;5.30;99.90
3268;DHT22;1646;52.450;13.326;2022-12-05T10:48:45;5.30;99.90
3268;DHT22;1646;52.450;13.326;2022-12-05T10:53:45;5.30;99.90
3268;DHT22;1646;52.450;13.326;2022-12-05T10:58:54;5.30;99.90
3268;DHT22;1646;52.450;13.326;2022-12-05T11:03:56;5.40;99.90
3268;DHT22;1646;52.450;13.326;2022-12-05T11:08:56;5.40;99.90
3268;DHT22;1646;52.450;13.326;2022-12-05T11:14:04;5.40;99.90
3268;DHT22;1646;52.450;13.326;2022-12-05T11:19:18;5.30;99.90
3268;DHT22;1646;52.450;13.326;2022-12-05T11:24:23;5.40;99.90
3268;DHT22;1646;52.450;13.326;2022-12-05T11:29:32;5.50;99.90
3268;DHT22;1646;52.450;13.326;2022-12-05T11:34:36;5.60;99.90
3268;DHT22;1646;52.450;13.326;2022-12-05T11:39:35;5.60;99.90
3268;DHT22;1646;52.450;13.326;2022-12-05T11:44:57;5.60;99.90
3268;DHT22;1646;52.450;13.326;2022-12-05T11:50:15;5.50;99.90
3268;DHT22;1646;52.450;13.326;2022-12-05T11:55:19;5.50;99.90
3268;DHT22;1646;52.450;13.326;2022-12-05T12:00:23;5.60;99.90
3268;DHT22;1646;52.450;13.326;2022-12-05T12:05:26;5.60;99.90
3268;DHT22;1646;52.450;13.326;2022-12-05T12:10:34;5.60;99.90
3268;DHT22;1646;52.450;13.326;2022-12-05T12:15:50;5.50;99.90
3268;DHT22;1646;52.450;13.326;2022-12-05T12:20:59;5.50;99.90
3268;DHT22;1646;52.450;13.326;2022-12-05T12:26:08;5.60;99.90
3268;DHT22;1646;52.450;13.326;2022-12-05T12:31:45;5.60;99.90
3268;DHT22;1646;52.450;13.326;2022-12-05T12:36:50;5.70;99.90
3268;DHT22;1646;52.450;13.326;2022-12-05T12:42:01;5.70;99.90
3268;DHT22;1646;52.450;13.326;2022-12-05T12:47:11;5.60;99.90
3268;DHT22;1646;52.450;13.326;2022-12-05T12:52:15;5.60;99.90
3268;DHT22;1646;52.450;13.326;2022-12-05T12:57:19;5.60;99.90
3268;DHT22;1646;52.450;13.326;2022-12-05T13:02:26;5.60;99.90
3268;DHT22;1646;52.450;13.326;2022-12-05T13:07:29;5.50;99.90
3268;DHT22;1646;52.450;13.326;2022-12-05T13:12:32;5.50;99.90
3268;DHT22;1646;52.450;13.326;2022-12-05T13:17:38;5.60;99.90
3268;DHT22;1646;52.450;13.326;2022-12-05T13:22:38;5.70;99.90
3268;DHT22;1646;52.450;13.326;2022-12-05T13:27:36;5.60;99.90
3268;DHT22;1646;52.450;13.326;2022-12-05T13:32:37;5.50;99.90
3268;DHT22;1646;52.450;13.326;2022-12-05T13:37:43;5.60;99.90
3268;DHT22;1646;52.450;13.326;2022-12-05T13:43:01;5.60;99.90
3268;DHT22;1646;52.450;13.326;2022-12-05T13:48:18;5.70;99.90
3268;DHT22;1646;52.450;13.326;2022-12-05T13:53:27;5.60;99.90
3268;DHT22;1646;52.450;13.326;2022-12-05T13:58:41;5.70;99.90
3268;DHT22;1646;52.450;13.326;2022-12-05T14:04:00;5.60;99.90
3268;DHT22;1646;52.450;13.326;2022-12-05T14:08:58;5.60;99.90
3268;DHT22;1646;52.450;13.326;2022-12-05T14:13:58;5.60;99.90
3268;DHT22;1646;52.450;13.326;2022-12-05T14:19:06;5.80;99.90
3268;DHT22;1646;52.450;13.326;2022-12-05T14:24:15;5.80;99.90
3268;DHT22;1646;52.450;13.326;2022-12-05T14:29:33;5.90;99.90
3268;DHT22;1646;52.450;13.326;2022-12-05T14:34:35;5.90;99.90
3268;DHT22;1646;52.450;13.326;2022-12-05T14:39:39;5.90;99.90
3268;DHT22;1646;52.450;13.326;2022-12-05T14:44:45;6.00;99.90
3268;DHT22;1646;52.450;13.326;2022-12-05T14:49:59;6.00;99.90
3268;DHT22;1646;52.450;13.326;2022-12-05T14:55:05;6.00;99.90
3268;DHT22;1646;52.450;13.326;2022-12-05T15:00:18;6.20;99.90
3268;DHT22;1646;52.450;13.326;2022-12-05T15:05:23;6.30;99.90
3268;DHT22;1646;52.450;13.326;2022-12-05T15:10:27;6.30;99.90
3268;DHT22;1646;52.450;13.326;2022-12-05T15:15:33;6.40;99.90
3268;DHT22;1646;52.450;13.326;2022-12-05T15:20:41;6.20;99.90
3268;DHT22;1646;52.450;13.326;2022-12-05T15:25:41;6.20;99.90
3268;DHT22;1646;52.450;13.326;2022-12-05T15:30:40;6.30;99.90
3268;DHT22;1646;52.450;13.326;2022-12-05T15:35:40;6.30;99.90
3268;DHT22;1646;52.450;13.326;2022-12-05T15:40:45;6.20;99.90
3268;DHT22;1646;52.450;13.326;2022-12-05T15:45:43;6.20;99.90
3268;DHT22;1646;52.450;13.326;2022-12-05T15:50:43;6.20;99.90
3268;DHT22;1646;52.450;13.326;2022-12-05T15:55:45;6.20;99.90
3268;DHT22;1646;52.450;13.326;2022-12-05T16:00:46;6.10;99.90
3268;DHT22;1646;52.450;13.326;2022-12-05T16:05:55;6.20;99.90
3268;DHT22;1646;52.450;13.326;2022-12-05T16:11:06;6.20;99.90
3268;DHT22;1646;52.450;13.326;2022-12-05T16:16:18;6.20;99.90
3268;DHT22;1646;52.450;13.326;2022-12-05T16:21:31;6.30;99.90
3268;DHT22;1646;52.450;13.326;2022-12-05T16:27:02;6.30;99.90
3268;DHT22;1646;52.450;13.326;2022-12-05T16:32:16;6.30;99.90
3268;DHT22;1646;52.450;13.326;2022-12-05T16:37:28;6.40;99.90
3268;DHT22;1646;52.450;13.326;2022-12-05T16:42:34;6.40;99.90
3268;DHT22;1646;52.450;13.326;2022-12-05T16:48:01;6.30;99.90
3268;DHT22;1646;52.450;13.326;2022-12-05T16:53:21;6.30;99.90
3268;DHT22;1646;52.450;13.326;2022-12-05T16:58:37;6.20;99.90
3268;DHT22;1646;52.450;13.326;2022-12-05T17:03:52;6.20;99.90
3268;DHT22;1646;52.450;13.326;2022-12-05T17:09:05;6.20;99.90
3268;DHT22;1646;52.450;13.326;2022-12-05T17:14:14;6.10;99.90
3268;DHT22;1646;52.450;13.326;2022-12-05T17:19:52;6.00;99.90
3268;DHT22;1646;52.450;13.326;2022-12-05T17:25:05;6.00;99.90
3268;DHT22;1646;52.450;13.326;2022-12-05T17:30:21;6.10;99.90
3268;DHT22;1646;52.450;13.326;2022-12-05T17:35:31;6.20;99.90
3268;DHT22;1646;52.450;13.326;2022-12-05T17:40:54;6.40;99.90
3268;DHT22;1646;52.450;13.326;2022-12-05T17:46:07;6.40;99.90
3268;DHT22;1646;52.450;13.326;2022-12-05T17:51:13;6.40;99.90
3268;DHT22;1646;52.450;13.326;2022-12-05T17:57:01;6.40;99.90
3268;DHT22;1646;52.450;13.326;2022-12-05T18:02:14;6.50;99.90
3268;DHT22;1646;52.450;13.326;2022-12-05T18:07:23;6.30;99.90
3268;DHT22;1646;52.450;13.326;2022-12-05T18:12:38;6.30;99.90
3268;DHT22;1646;52.450;13.326;2022-12-05T18:17:54;6.30;99.90
3268;DHT22;1646;52.450;13.326;2022-12-05T18:23:05;6.30;99.90
3268;DHT22;1646;52.450;13.326;2022-12-05T18:28:22;6.30;99.90
3268;DHT22;1646;52.450;13.326;2022-12-05T18:33:46;6.30;99.90
3268;DHT22;1646;52.450;13.326;2022-12-05T18:39:01;6.20;99.90
3268;DHT22;1646;52.450;13.326;2022-12-05T18:44:19;6.20;99.90
3268;DHT22;1646;52.450;13.326;2022-12-05T18:50:00;6.20;99.90
3268;DHT22;1646;52.450;13.326;2022-12-05T18:55:41;6.30;99.90
3268;DHT22;1646;52.450;13.326;2022-12-05T19:01:20;6.40;99.90
3268;DHT22;1646;52.450;13.326;2022-12-05T19:06:37;6.40;99.90
3268;DHT22;1646;52.450;13.326;2022-12-05T19:11:52;6.40;99.90
3268;DHT22;1646;52.450;13.326;2022-12-05T19:23:16;6.10;99.90
3268;DHT22;1646;52.450;13.326;2022-12-05T19:28:57;5.90;99.90
3268;DHT22;1646;52.450;13.326;2022-12-05T19:34:15;5.80;99.90
3268;DHT22;1646;52.450;13.326;2022-12-05T19:40:07;5.80;99.90
3268;DHT22;1646;52.450;13.326;2022-12-05T19:45:37;5.80;99.90
3268;DHT22;1646;52.450;13.326;2022-12-05T19:50:55;5.70;99.90
3268;DHT22;1646;52.450;13.326;2022-12-05T19:56:29;5.60;99.90
3268;DHT22;1646;52.450;13.326;2022-12-05T20:01:43;5.50;99.90
3268;DHT22;1646;52.450;13.326;2022-12-05T20:07:09;5.40;99.90
3268;DHT22;1646;52.450;13.326;2022-12-05T20:13:05;5.50;99.90
3268;DHT22;1646;52.450;13.326;2022-12-05T20:18:52;5.50;99.90
3268;DHT22;1646;52.450;13.326;2022-12-05T20:24:24;5.40;99.90
3268;DHT22;1646;52.450;13.326;2022-12-05T20:29:50;5.30;99.90
3268;DHT22;1646;52.450;13.326;2022-12-05T20:35:26;5.30;99.90
3268;DHT22;1646;52.450;13.326;2022-12-05T20:40:57;5.40;99.90
3268;DHT22;1646;52.450;13.326;2022-12-05T20:52:57;5.40;99.90
3268;DHT22;1646;52.450;13.326;2022-12-05T20:58:16;5.20;99.90
3268;DHT22;1646;52.450;13.326;2022-12-05T21:09:34;5.20;99.90
3268;DHT22;1646;52.450;13.326;2022-12-05T21:15:03;5.10;99.90
3268;DHT22;1646;52.450;13.326;2022-12-05T21:20:43;5.10;99.90
3268;DHT22;1646;52.450;13.326;2022-12-05T21:26:32;4.90;99.90
3268;DHT22;1646;52.450;13.326;2022-12-05T21:32:07;5.00;99.90
3268;DHT22;1646;52.450;13.326;2022-12-05T21:37:20;4.90;99.90
3268;DHT22;1646;52.450;13.326;2022-12-05T22:02:14;5.10;99.90
3268;DHT22;1646;52.450;13.326;2022-12-05T22:14:04;5.10;99.90
3268;DHT22;1646;52.450;13.326;2022-12-05T22:20:13;4.90;99.90
3268;DHT22;1646;52.450;13.326;2022-12-05T22:26:34;4.90;99.90
3268;DHT22;1646;52.450;13.326;2022-12-05T22:32:55;5.10;99.90
3268;DHT22;1646;52.450;13.326;2022-12-05T22:39:00;5.20;99.90
3268;DHT22;1646;52.450;13.326;2022-12-05T22:45:07;5.20;99.90
3268;DHT22;1646;52.450;13.326;2022-12-05T22:50:56;5.20;99.90
3268;DHT22;1646;52.450;13.326;2022-12-05T22:56:33;5.00;99.90
3268;DHT22;1646;52.450;13.326;2022-12-05T23:02:01;4.90;99.90
3268;DHT22;1646;52.450;13.326;2022-12-05T23:07:10;4.90;99.90
3268;DHT22;1646;52.450;13.326;2022-12-05T23:12:26;5.00;99.90
3268;DHT22;1646;52.450;13.326;2022-12-05T23:17:49;4.80;99.90
3268;DHT22;1646;52.450;13.326;2022-12-05T23:23:00;4.70;99.90
3268;DHT22;1646;52.450;13.326;2022-12-05T23:28:13;4.70;99.90
3268;DHT22;1646;52.450;13.326;2022-12-05T23:33:20;4.60;99.90
3268;DHT22;1646;52.450;13.326;2022-12-05T23:38:35;4.50;99.90
3268;DHT22;1646;52.450;13.326;2022-12-05T23:43:57;4.50;99.90
3268;DHT22;1646;52.450;13.326;2022-12-05T23:48:59;4.60;99.90
3268;DHT22;1646;52.450;13.326;2022-12-05T23:54:11;4.50;99.90
3268;DHT22;1646;52.450;13.326;2022-12-05T23:59:30;4.50;99.90
